sensor_id;sensor_type;location;lat;lon;timestamp;P1;durP1;ratioP1;P2;durP2;ratioP2
36689;SDS011;22676;51.120;3.702;2023-11-19T00:00:27;4.60;;;1.77;;
36689;SDS011;22676;51.120;3.702;2023-11-19T00:02:52;6.57;;;2.05;;
36689;SDS011;22676;51.120;3.702;2023-11-19T00:05:18;5.25;;;1.80;;
36689;SDS011;22676;51.120;3.702;2023-11-19T00:07:44;4.30;;;1.63;;
36689;SDS011;22676;51.120;3.702;2023-11-19T00:10:16;5.50;;;1.80;;
36689;SDS011;22676;51.120;3.702;2023-11-19T00:12:46;4.28;;;1.83;;
36689;SDS011;22676;51.120;3.702;2023-11-19T00:15:13;4.07;;;1.83;;
36689;SDS011;22676;51.120;3.702;2023-11-19T00:17:40;5.88;;;1.92;;
36689;SDS011;22676;51.120;3.702;2023-11-19T00:20:10;6.93;;;2.10;;
36689;SDS011;22676;51.120;3.702;2023-11-19T00:22:36;4.80;;;2.10;;
36689;SDS011;22676;51.120;3.702;2023-11-19T00:25:02;5.10;;;2.10;;
36689;SDS011;22676;51.120;3.702;2023-11-19T00:27:28;5.38;;;2.00;;
36689;SDS011;22676;51.120;3.702;2023-11-19T00:29:54;5.63;;;2.08;;
36689;SDS011;22676;51.120;3.702;2023-11-19T00:32:20;7.22;;;2.17;;
36689;SDS011;22676;51.120;3.702;2023-11-19T00:34:45;4.78;;;2.00;;
36689;SDS011;22676;51.120;3.702;2023-11-19T00:37:13;5.35;;;1.92;;
36689;SDS011;22676;51.120;3.702;2023-11-19T00:39:40;4.25;;;1.80;;
36689;SDS011;22676;51.120;3.702;2023-11-19T00:42:06;5.85;;;2.20;;
36689;SDS011;22676;51.120;3.702;2023-11-19T00:44:31;6.82;;;2.30;;
36689;SDS011;22676;51.120;3.702;2023-11-19T00:46:57;5.15;;;2.00;;
36689;SDS011;22676;51.120;3.702;2023-11-19T00:49:24;6.00;;;2.13;;
36689;SDS011;22676;51.120;3.702;2023-11-19T00:51:50;5.70;;;2.28;;
36689;SDS011;22676;51.120;3.702;2023-11-19T00:54:15;4.38;;;2.00;;
36689;SDS011;22676;51.120;3.702;2023-11-19T00:56:41;7.47;;;2.53;;
36689;SDS011;22676;51.120;3.702;2023-11-19T00:59:07;7.53;;;2.33;;
36689;SDS011;22676;51.120;3.702;2023-11-19T01:01:32;7.25;;;2.47;;
36689;SDS011;22676;51.120;3.702;2023-11-19T01:03:58;6.05;;;2.22;;
36689;SDS011;22676;51.120;3.702;2023-11-19T01:06:30;10.82;;;3.10;;
36689;SDS011;22676;51.120;3.702;2023-11-19T01:08:57;6.57;;;2.50;;
36689;SDS011;22676;51.120;3.702;2023-11-19T01:11:24;7.20;;;2.08;;
36689;SDS011;22676;51.120;3.702;2023-11-19T01:13:50;4.97;;;2.67;;
36689;SDS011;22676;51.120;3.702;2023-11-19T01:16:16;8.77;;;2.83;;
36689;SDS011;22676;51.120;3.702;2023-11-19T01:18:43;8.63;;;2.97;;
36689;SDS011;22676;51.120;3.702;2023-11-19T01:21:09;6.80;;;2.70;;
36689;SDS011;22676;51.120;3.702;2023-11-19T01:23:35;5.97;;;2.80;;
36689;SDS011;22676;51.120;3.702;2023-11-19T01:26:02;8.50;;;2.70;;
36689;SDS011;22676;51.120;3.702;2023-11-19T01:28:28;13.85;;;3.60;;
36689;SDS011;22676;51.120;3.702;2023-11-19T01:30:53;5.10;;;2.60;;
36689;SDS011;22676;51.120;3.702;2023-11-19T01:33:19;8.48;;;2.58;;
36689;SDS011;22676;51.120;3.702;2023-11-19T01:35:46;10.50;;;2.97;;
36689;SDS011;22676;51.120;3.702;2023-11-19T01:38:12;7.15;;;2.65;;
36689;SDS011;22676;51.120;3.702;2023-11-19T01:40:37;8.70;;;3.03;;
36689;SDS011;22676;51.120;3.702;2023-11-19T01:43:03;9.65;;;2.95;;
36689;SDS011;22676;51.120;3.702;2023-11-19T01:45:29;8.65;;;3.15;;
36689;SDS011;22676;51.120;3.702;2023-11-19T01:47:56;9.90;;;3.25;;
36689;SDS011;22676;51.120;3.702;2023-11-19T01:50:23;11.63;;;3.22;;
36689;SDS011;22676;51.120;3.702;2023-11-19T01:52:52;10.27;;;2.80;;
36689;SDS011;22676;51.120;3.702;2023-11-19T01:55:19;9.05;;;3.20;;
36689;SDS011;22676;51.120;3.702;2023-11-19T01:57:46;9.82;;;3.05;;
36689;SDS011;22676;51.120;3.702;2023-11-19T02:00:14;8.57;;;3.22;;
36689;SDS011;22676;51.120;3.702;2023-11-19T02:02:41;11.05;;;3.38;;
36689;SDS011;22676;51.120;3.702;2023-11-19T02:05:08;8.27;;;2.80;;
36689;SDS011;22676;51.120;3.702;2023-11-19T02:07:35;8.73;;;3.10;;
36689;SDS011;22676;51.120;3.702;2023-11-19T02:10:01;9.20;;;3.25;;
36689;SDS011;22676;51.120;3.702;2023-11-19T02:12:27;7.80;;;3.03;;
36689;SDS011;22676;51.120;3.702;2023-11-19T02:17:25;8.65;;;3.10;;
36689;SDS011;22676;51.120;3.702;2023-11-19T02:19:59;10.85;;;2.90;;
36689;SDS011;22676;51.120;3.702;2023-11-19T02:22:25;8.93;;;2.85;;
36689;SDS011;22676;51.120;3.702;2023-11-19T02:24:55;8.02;;;3.00;;
36689;SDS011;22676;51.120;3.702;2023-11-19T02:30:13;8.40;;;3.30;;
36689;SDS011;22676;51.120;3.702;2023-11-19T02:32:41;12.38;;;3.47;;
36689;SDS011;22676;51.120;3.702;2023-11-19T02:35:07;10.10;;;3.22;;
36689;SDS011;22676;51.120;3.702;2023-11-19T02:37:34;9.50;;;3.17;;
36689;SDS011;22676;51.120;3.702;2023-11-19T02:39:59;9.18;;;3.35;;
36689;SDS011;22676;51.120;3.702;2023-11-19T02:42:27;11.13;;;3.08;;
36689;SDS011;22676;51.120;3.702;2023-11-19T02:44:54;9.93;;;3.30;;
36689;SDS011;22676;51.120;3.702;2023-11-19T02:47:19;12.75;;;3.72;;
36689;SDS011;22676;51.120;3.702;2023-11-19T02:49:46;8.70;;;3.38;;
36689;SDS011;22676;51.120;3.702;2023-11-19T02:52:12;10.50;;;3.45;;
36689;SDS011;22676;51.120;3.702;2023-11-19T02:54:39;9.77;;;3.60;;
36689;SDS011;22676;51.120;3.702;2023-11-19T02:57:06;13.90;;;3.85;;
36689;SDS011;22676;51.120;3.702;2023-11-19T02:59:35;8.50;;;3.58;;
36689;SDS011;22676;51.120;3.702;2023-11-19T03:02:07;10.13;;;3.65;;
36689;SDS011;22676;51.120;3.702;2023-11-19T03:04:36;15.07;;;3.85;;
36689;SDS011;22676;51.120;3.702;2023-11-19T03:07:06;11.05;;;3.35;;
36689;SDS011;22676;51.120;3.702;2023-11-19T03:09:34;11.52;;;3.80;;
36689;SDS011;22676;51.120;3.702;2023-11-19T03:12:00;10.52;;;3.50;;
36689;SDS011;22676;51.120;3.702;2023-11-19T03:14:26;12.40;;;3.83;;
36689;SDS011;22676;51.120;3.702;2023-11-19T03:16:52;7.85;;;3.20;;
36689;SDS011;22676;51.120;3.702;2023-11-19T03:19:18;11.65;;;4.10;;
36689;SDS011;22676;51.120;3.702;2023-11-19T03:21:44;9.55;;;3.58;;
36689;SDS011;22676;51.120;3.702;2023-11-19T03:24:10;9.57;;;3.20;;
36689;SDS011;22676;51.120;3.702;2023-11-19T03:26:39;9.90;;;3.38;;
36689;SDS011;22676;51.120;3.702;2023-11-19T03:29:05;11.77;;;3.70;;
36689;SDS011;22676;51.120;3.702;2023-11-19T03:31:30;10.95;;;3.92;;
36689;SDS011;22676;51.120;3.702;2023-11-19T03:33:56;11.98;;;3.78;;
36689;SDS011;22676;51.120;3.702;2023-11-19T03:36:22;10.57;;;3.63;;
36689;SDS011;22676;51.120;3.702;2023-11-19T03:38:47;13.45;;;4.07;;
36689;SDS011;22676;51.120;3.702;2023-11-19T03:41:13;8.73;;;3.50;;
36689;SDS011;22676;51.120;3.702;2023-11-19T03:43:40;11.82;;;4.05;;
36689;SDS011;22676;51.120;3.702;2023-11-19T03:46:21;10.85;;;3.40;;
36689;SDS011;22676;51.120;3.702;2023-11-19T03:48:50;9.80;;;3.72;;
36689;SDS011;22676;51.120;3.702;2023-11-19T03:51:16;9.52;;;3.42;;
36689;SDS011;22676;51.120;3.702;2023-11-19T03:53:43;10.60;;;3.58;;
36689;SDS011;22676;51.120;3.702;2023-11-19T03:56:09;12.90;;;3.75;;
36689;SDS011;22676;51.120;3.702;2023-11-19T03:58:36;9.52;;;3.67;;
36689;SDS011;22676;51.120;3.702;2023-11-19T04:01:03;11.52;;;3.78;;
36689;SDS011;22676;51.120;3.702;2023-11-19T04:03:29;10.07;;;3.50;;
36689;SDS011;22676;51.120;3.702;2023-11-19T04:05:54;9.82;;;4.00;;
36689;SDS011;22676;51.120;3.702;2023-11-19T04:08:21;9.55;;;3.38;;
36689;SDS011;22676;51.120;3.702;2023-11-19T04:10:47;11.77;;;4.07;;
36689;SDS011;22676;51.120;3.702;2023-11-19T04:13:13;10.25;;;3.50;;
36689;SDS011;22676;51.120;3.702;2023-11-19T04:15:39;9.48;;;3.83;;
36689;SDS011;22676;51.120;3.702;2023-11-19T04:18:05;12.93;;;4.38;;
36689;SDS011;22676;51.120;3.702;2023-11-19T04:20:30;12.15;;;4.38;;
36689;SDS011;22676;51.120;3.702;2023-11-19T04:22:56;11.77;;;3.75;;
36689;SDS011;22676;51.120;3.702;2023-11-19T04:25:22;11.45;;;3.80;;
36689;SDS011;22676;51.120;3.702;2023-11-19T04:27:51;8.88;;;3.35;;
36689;SDS011;22676;51.120;3.702;2023-11-19T04:30:17;11.10;;;3.88;;
36689;SDS011;22676;51.120;3.702;2023-11-19T04:32:43;12.18;;;4.13;;
36689;SDS011;22676;51.120;3.702;2023-11-19T04:35:09;10.85;;;4.07;;
36689;SDS011;22676;51.120;3.702;2023-11-19T04:37:35;11.70;;;4.07;;
36689;SDS011;22676;51.120;3.702;2023-11-19T04:40:02;14.15;;;4.05;;
36689;SDS011;22676;51.120;3.702;2023-11-19T04:42:28;11.30;;;3.67;;
36689;SDS011;22676;51.120;3.702;2023-11-19T04:44:54;14.40;;;4.28;;
36689;SDS011;22676;51.120;3.702;2023-11-19T04:47:20;12.90;;;4.35;;
36689;SDS011;22676;51.120;3.702;2023-11-19T04:49:46;11.38;;;4.28;;
36689;SDS011;22676;51.120;3.702;2023-11-19T04:52:12;13.15;;;4.50;;
36689;SDS011;22676;51.120;3.702;2023-11-19T04:54:43;14.88;;;4.25;;
36689;SDS011;22676;51.120;3.702;2023-11-19T04:57:09;8.15;;;3.67;;
36689;SDS011;22676;51.120;3.702;2023-11-19T04:59:38;11.20;;;3.95;;
36689;SDS011;22676;51.120;3.702;2023-11-19T05:02:04;11.23;;;4.15;;
36689;SDS011;22676;51.120;3.702;2023-11-19T05:04:30;9.85;;;4.00;;
36689;SDS011;22676;51.120;3.702;2023-11-19T05:06:56;10.65;;;3.95;;
36689;SDS011;22676;51.120;3.702;2023-11-19T05:09:22;16.92;;;4.60;;
36689;SDS011;22676;51.120;3.702;2023-11-19T05:11:48;11.98;;;3.97;;
36689;SDS011;22676;51.120;3.702;2023-11-19T05:14:14;10.95;;;3.90;;
36689;SDS011;22676;51.120;3.702;2023-11-19T05:16:40;12.20;;;4.13;;
36689;SDS011;22676;51.120;3.702;2023-11-19T05:19:06;11.02;;;4.50;;
36689;SDS011;22676;51.120;3.702;2023-11-19T05:21:32;12.23;;;4.50;;
36689;SDS011;22676;51.120;3.702;2023-11-19T05:23:58;15.32;;;4.40;;
36689;SDS011;22676;51.120;3.702;2023-11-19T05:26:24;12.45;;;4.13;;
36689;SDS011;22676;51.120;3.702;2023-11-19T05:28:50;11.68;;;4.20;;
36689;SDS011;22676;51.120;3.702;2023-11-19T05:31:16;12.10;;;4.03;;
36689;SDS011;22676;51.120;3.702;2023-11-19T05:33:43;11.88;;;4.35;;
36689;SDS011;22676;51.120;3.702;2023-11-19T05:36:10;13.52;;;3.63;;
36689;SDS011;22676;51.120;3.702;2023-11-19T05:38:36;13.63;;;4.53;;
36689;SDS011;22676;51.120;3.702;2023-11-19T05:41:02;10.48;;;4.13;;
36689;SDS011;22676;51.120;3.702;2023-11-19T05:43:29;13.45;;;4.10;;
36689;SDS011;22676;51.120;3.702;2023-11-19T05:45:55;11.50;;;4.28;;
36689;SDS011;22676;51.120;3.702;2023-11-19T05:48:21;12.90;;;4.18;;
36689;SDS011;22676;51.120;3.702;2023-11-19T05:50:47;12.27;;;4.20;;
36689;SDS011;22676;51.120;3.702;2023-11-19T05:53:14;10.63;;;4.00;;
36689;SDS011;22676;51.120;3.702;2023-11-19T05:55:40;14.25;;;3.97;;
36689;SDS011;22676;51.120;3.702;2023-11-19T05:58:13;13.00;;;4.00;;
36689;SDS011;22676;51.120;3.702;2023-11-19T06:00:39;12.77;;;4.03;;
36689;SDS011;22676;51.120;3.702;2023-11-19T06:03:05;12.95;;;4.20;;
36689;SDS011;22676;51.120;3.702;2023-11-19T06:05:32;10.23;;;3.90;;
36689;SDS011;22676;51.120;3.702;2023-11-19T06:07:58;13.75;;;4.50;;
36689;SDS011;22676;51.120;3.702;2023-11-19T06:10:23;12.70;;;3.85;;
36689;SDS011;22676;51.120;3.702;2023-11-19T06:12:57;12.85;;;4.57;;
36689;SDS011;22676;51.120;3.702;2023-11-19T06:15:29;12.25;;;4.53;;
36689;SDS011;22676;51.120;3.702;2023-11-19T06:17:55;12.05;;;4.03;;
36689;SDS011;22676;51.120;3.702;2023-11-19T06:20:23;10.23;;;4.32;;
36689;SDS011;22676;51.120;3.702;2023-11-19T06:22:49;13.80;;;4.60;;
36689;SDS011;22676;51.120;3.702;2023-11-19T06:25:15;13.23;;;4.00;;
36689;SDS011;22676;51.120;3.702;2023-11-19T06:27:41;11.00;;;4.32;;
36689;SDS011;22676;51.120;3.702;2023-11-19T06:30:07;11.45;;;4.22;;
36689;SDS011;22676;51.120;3.702;2023-11-19T06:32:34;13.88;;;3.72;;
36689;SDS011;22676;51.120;3.702;2023-11-19T06:35:00;10.73;;;3.78;;
36689;SDS011;22676;51.120;3.702;2023-11-19T06:37:26;10.93;;;4.07;;
36689;SDS011;22676;51.120;3.702;2023-11-19T06:39:52;12.07;;;4.22;;
36689;SDS011;22676;51.120;3.702;2023-11-19T06:42:18;11.52;;;3.92;;
36689;SDS011;22676;51.120;3.702;2023-11-19T06:44:43;10.18;;;3.60;;
36689;SDS011;22676;51.120;3.702;2023-11-19T06:47:09;11.15;;;4.00;;
36689;SDS011;22676;51.120;3.702;2023-11-19T06:49:34;12.18;;;4.00;;
36689;SDS011;22676;51.120;3.702;2023-11-19T06:52:00;11.65;;;3.58;;
36689;SDS011;22676;51.120;3.702;2023-11-19T06:54:26;9.98;;;4.20;;
36689;SDS011;22676;51.120;3.702;2023-11-19T06:56:52;10.85;;;4.18;;
36689;SDS011;22676;51.120;3.702;2023-11-19T06:59:17;11.25;;;3.67;;
36689;SDS011;22676;51.120;3.702;2023-11-19T07:01:44;11.75;;;3.60;;
36689;SDS011;22676;51.120;3.702;2023-11-19T07:04:12;12.32;;;4.03;;
36689;SDS011;22676;51.120;3.702;2023-11-19T07:06:38;12.45;;;4.55;;
36689;SDS011;22676;51.120;3.702;2023-11-19T07:09:07;14.80;;;4.80;;
36689;SDS011;22676;51.120;3.702;2023-11-19T07:11:43;17.45;;;4.25;;
36689;SDS011;22676;51.120;3.702;2023-11-19T07:14:10;12.40;;;3.75;;
36689;SDS011;22676;51.120;3.702;2023-11-19T07:16:36;12.38;;;4.07;;
36689;SDS011;22676;51.120;3.702;2023-11-19T07:19:03;9.13;;;4.00;;
36689;SDS011;22676;51.120;3.702;2023-11-19T07:21:30;13.52;;;4.47;;
36689;SDS011;22676;51.120;3.702;2023-11-19T07:23:57;12.82;;;3.75;;
36689;SDS011;22676;51.120;3.702;2023-11-19T07:26:23;10.65;;;4.28;;
36689;SDS011;22676;51.120;3.702;2023-11-19T07:28:49;10.43;;;3.83;;
36689;SDS011;22676;51.120;3.702;2023-11-19T07:31:15;11.93;;;4.50;;
36689;SDS011;22676;51.120;3.702;2023-11-19T07:33:41;10.60;;;4.13;;
36689;SDS011;22676;51.120;3.702;2023-11-19T07:36:10;8.13;;;3.80;;
36689;SDS011;22676;51.120;3.702;2023-11-19T07:38:36;14.02;;;4.47;;
36689;SDS011;22676;51.120;3.702;2023-11-19T07:41:03;10.90;;;4.20;;
36689;SDS011;22676;51.120;3.702;2023-11-19T07:43:30;13.00;;;4.18;;
36689;SDS011;22676;51.120;3.702;2023-11-19T07:45:56;11.27;;;3.67;;
36689;SDS011;22676;51.120;3.702;2023-11-19T07:48:24;16.38;;;4.40;;
36689;SDS011;22676;51.120;3.702;2023-11-19T07:50:51;12.63;;;4.18;;
36689;SDS011;22676;51.120;3.702;2023-11-19T07:53:18;15.30;;;4.05;;
36689;SDS011;22676;51.120;3.702;2023-11-19T07:55:44;16.48;;;4.40;;
36689;SDS011;22676;51.120;3.702;2023-11-19T07:58:10;12.13;;;4.53;;
36689;SDS011;22676;51.120;3.702;2023-11-19T08:00:36;15.20;;;4.55;;
36689;SDS011;22676;51.120;3.702;2023-11-19T08:03:03;12.52;;;4.38;;
36689;SDS011;22676;51.120;3.702;2023-11-19T08:05:29;15.88;;;5.03;;
36689;SDS011;22676;51.120;3.702;2023-11-19T08:07:55;13.02;;;4.07;;
36689;SDS011;22676;51.120;3.702;2023-11-19T08:10:21;11.63;;;4.22;;
36689;SDS011;22676;51.120;3.702;2023-11-19T08:12:47;14.73;;;5.18;;
36689;SDS011;22676;51.120;3.702;2023-11-19T08:15:13;11.25;;;4.55;;
36689;SDS011;22676;51.120;3.702;2023-11-19T08:17:39;12.88;;;5.03;;
36689;SDS011;22676;51.120;3.702;2023-11-19T08:20:05;13.57;;;4.78;;
36689;SDS011;22676;51.120;3.702;2023-11-19T08:22:35;12.95;;;4.57;;
36689;SDS011;22676;51.120;3.702;2023-11-19T08:25:02;17.85;;;4.00;;
36689;SDS011;22676;51.120;3.702;2023-11-19T08:27:31;13.13;;;4.78;;
36689;SDS011;22676;51.120;3.702;2023-11-19T08:29:57;13.38;;;4.68;;
36689;SDS011;22676;51.120;3.702;2023-11-19T08:32:23;16.15;;;4.60;;
36689;SDS011;22676;51.120;3.702;2023-11-19T08:34:49;13.80;;;4.75;;
36689;SDS011;22676;51.120;3.702;2023-11-19T08:37:15;13.95;;;4.57;;
36689;SDS011;22676;51.120;3.702;2023-11-19T08:39:43;12.23;;;4.60;;
36689;SDS011;22676;51.120;3.702;2023-11-19T08:42:08;12.27;;;4.60;;
36689;SDS011;22676;51.120;3.702;2023-11-19T08:44:34;12.55;;;4.15;;
36689;SDS011;22676;51.120;3.702;2023-11-19T08:47:00;13.60;;;4.78;;
36689;SDS011;22676;51.120;3.702;2023-11-19T08:49:25;15.75;;;5.00;;
36689;SDS011;22676;51.120;3.702;2023-11-19T08:51:51;17.77;;;4.68;;
36689;SDS011;22676;51.120;3.702;2023-11-19T08:54:17;12.07;;;4.30;;
36689;SDS011;22676;51.120;3.702;2023-11-19T08:56:42;13.82;;;4.43;;
36689;SDS011;22676;51.120;3.702;2023-11-19T08:59:08;11.55;;;5.05;;
36689;SDS011;22676;51.120;3.702;2023-11-19T09:01:34;14.93;;;4.32;;
36689;SDS011;22676;51.120;3.702;2023-11-19T09:03:59;13.90;;;4.70;;
36689;SDS011;22676;51.120;3.702;2023-11-19T09:06:25;12.85;;;4.30;;
36689;SDS011;22676;51.120;3.702;2023-11-19T09:08:51;10.45;;;4.47;;
36689;SDS011;22676;51.120;3.702;2023-11-19T09:11:17;11.15;;;4.60;;
36689;SDS011;22676;51.120;3.702;2023-11-19T09:13:43;21.20;;;5.05;;
36689;SDS011;22676;51.120;3.702;2023-11-19T09:16:11;10.82;;;4.07;;
36689;SDS011;22676;51.120;3.702;2023-11-19T09:18:37;11.57;;;4.43;;
36689;SDS011;22676;51.120;3.702;2023-11-19T09:21:03;10.18;;;3.88;;
36689;SDS011;22676;51.120;3.702;2023-11-19T09:23:28;8.38;;;3.55;;
36689;SDS011;22676;51.120;3.702;2023-11-19T09:25:57;11.02;;;4.20;;
36689;SDS011;22676;51.120;3.702;2023-11-19T09:28:23;13.68;;;4.70;;
36689;SDS011;22676;51.120;3.702;2023-11-19T09:30:49;10.00;;;4.05;;
36689;SDS011;22676;51.120;3.702;2023-11-19T09:33:14;13.48;;;4.50;;
36689;SDS011;22676;51.120;3.702;2023-11-19T09:35:40;14.35;;;4.38;;
36689;SDS011;22676;51.120;3.702;2023-11-19T09:38:05;14.95;;;4.72;;
36689;SDS011;22676;51.120;3.702;2023-11-19T09:40:31;10.77;;;3.88;;
36689;SDS011;22676;51.120;3.702;2023-11-19T09:42:57;12.73;;;4.38;;
36689;SDS011;22676;51.120;3.702;2023-11-19T09:45:22;13.38;;;4.43;;
36689;SDS011;22676;51.120;3.702;2023-11-19T09:47:52;14.15;;;4.40;;
36689;SDS011;22676;51.120;3.702;2023-11-19T09:50:20;12.00;;;4.68;;
36689;SDS011;22676;51.120;3.702;2023-11-19T09:52:46;13.63;;;4.25;;
36689;SDS011;22676;51.120;3.702;2023-11-19T09:55:12;13.02;;;4.03;;
36689;SDS011;22676;51.120;3.702;2023-11-19T09:57:39;9.75;;;4.03;;
36689;SDS011;22676;51.120;3.702;2023-11-19T10:00:07;14.82;;;4.60;;
36689;SDS011;22676;51.120;3.702;2023-11-19T10:02:35;8.45;;;3.70;;
36689;SDS011;22676;51.120;3.702;2023-11-19T10:05:04;14.00;;;5.18;;
36689;SDS011;22676;51.120;3.702;2023-11-19T10:07:31;11.93;;;4.00;;
36689;SDS011;22676;51.120;3.702;2023-11-19T10:10:04;10.55;;;3.45;;
36689;SDS011;22676;51.120;3.702;2023-11-19T10:12:30;13.48;;;4.10;;
36689;SDS011;22676;51.120;3.702;2023-11-19T10:14:56;15.05;;;4.05;;
36689;SDS011;22676;51.120;3.702;2023-11-19T10:17:31;13.73;;;4.20;;
36689;SDS011;22676;51.120;3.702;2023-11-19T10:19:58;11.73;;;4.13;;
36689;SDS011;22676;51.120;3.702;2023-11-19T10:22:24;12.60;;;4.07;;
36689;SDS011;22676;51.120;3.702;2023-11-19T10:24:51;10.68;;;3.70;;
36689;SDS011;22676;51.120;3.702;2023-11-19T10:27:17;11.70;;;3.78;;
36689;SDS011;22676;51.120;3.702;2023-11-19T10:29:46;10.07;;;3.70;;
36689;SDS011;22676;51.120;3.702;2023-11-19T10:32:13;13.68;;;3.50;;
36689;SDS011;22676;51.120;3.702;2023-11-19T10:34:42;13.13;;;3.78;;
36689;SDS011;22676;51.120;3.702;2023-11-19T10:37:08;10.52;;;3.85;;
36689;SDS011;22676;51.120;3.702;2023-11-19T10:40:08;14.80;;;4.03;;
36689;SDS011;22676;51.120;3.702;2023-11-19T10:42:30;9.75;;;3.80;;
36689;SDS011;22676;51.120;3.702;2023-11-19T10:44:55;11.50;;;3.80;;
36689;SDS011;22676;51.120;3.702;2023-11-19T10:47:22;10.02;;;3.53;;
36689;SDS011;22676;51.120;3.702;2023-11-19T10:49:48;10.27;;;4.00;;
36689;SDS011;22676;51.120;3.702;2023-11-19T10:52:17;15.05;;;3.30;;
36689;SDS011;22676;51.120;3.702;2023-11-19T10:54:48;13.80;;;3.83;;
36689;SDS011;22676;51.120;3.702;2023-11-19T10:57:21;11.25;;;3.92;;
36689;SDS011;22676;51.120;3.702;2023-11-19T10:59:55;11.35;;;3.78;;
36689;SDS011;22676;51.120;3.702;2023-11-19T11:02:26;11.95;;;3.65;;
36689;SDS011;22676;51.120;3.702;2023-11-19T11:04:53;8.35;;;3.60;;
36689;SDS011;22676;51.120;3.702;2023-11-19T11:07:21;13.65;;;3.70;;
36689;SDS011;22676;51.120;3.702;2023-11-19T11:09:51;8.83;;;3.47;;
36689;SDS011;22676;51.120;3.702;2023-11-19T11:12:17;10.50;;;3.75;;
36689;SDS011;22676;51.120;3.702;2023-11-19T11:14:47;6.85;;;3.22;;
36689;SDS011;22676;51.120;3.702;2023-11-19T11:17:13;11.38;;;3.38;;
36689;SDS011;22676;51.120;3.702;2023-11-19T11:19:42;9.77;;;3.80;;
36689;SDS011;22676;51.120;3.702;2023-11-19T11:22:09;10.45;;;3.85;;
36689;SDS011;22676;51.120;3.702;2023-11-19T11:24:50;7.72;;;3.35;;
36689;SDS011;22676;51.120;3.702;2023-11-19T11:27:34;8.85;;;3.35;;
36689;SDS011;22676;51.120;3.702;2023-11-19T11:30:17;15.45;;;4.10;;
36689;SDS011;22676;51.120;3.702;2023-11-19T11:32:59;8.35;;;3.28;;
36689;SDS011;22676;51.120;3.702;2023-11-19T11:38:26;14.35;;;3.67;;
36689;SDS011;22676;51.120;3.702;2023-11-19T11:48:59;9.43;;;3.80;;
36689;SDS011;22676;51.120;3.702;2023-11-19T11:54:10;8.93;;;3.83;;
36689;SDS011;22676;51.120;3.702;2023-11-19T12:02:09;12.82;;;3.70;;
36689;SDS011;22676;51.120;3.702;2023-11-19T12:04:36;12.30;;;4.00;;
36689;SDS011;22676;51.120;3.702;2023-11-19T12:07:11;12.50;;;4.78;;
36689;SDS011;22676;51.120;3.702;2023-11-19T12:09:41;12.82;;;5.10;;
36689;SDS011;22676;51.120;3.702;2023-11-19T12:12:17;13.07;;;4.15;;
36689;SDS011;22676;51.120;3.702;2023-11-19T12:17:48;10.48;;;4.22;;
36689;SDS011;22676;51.120;3.702;2023-11-19T12:20:15;14.85;;;4.07;;
36689;SDS011;22676;51.120;3.702;2023-11-19T12:22:43;9.65;;;3.80;;
36689;SDS011;22676;51.120;3.702;2023-11-19T12:25:11;9.27;;;4.18;;
36689;SDS011;22676;51.120;3.702;2023-11-19T12:27:41;9.65;;;4.18;;
36689;SDS011;22676;51.120;3.702;2023-11-19T12:30:08;8.25;;;3.30;;
36689;SDS011;22676;51.120;3.702;2023-11-19T12:32:47;13.32;;;4.40;;
36689;SDS011;22676;51.120;3.702;2023-11-19T12:35:13;10.38;;;4.00;;
36689;SDS011;22676;51.120;3.702;2023-11-19T12:37:39;12.63;;;3.97;;
36689;SDS011;22676;51.120;3.702;2023-11-19T12:42:41;12.43;;;3.95;;
36689;SDS011;22676;51.120;3.702;2023-11-19T12:45:07;10.25;;;4.30;;
36689;SDS011;22676;51.120;3.702;2023-11-19T12:47:36;11.25;;;3.30;;
36689;SDS011;22676;51.120;3.702;2023-11-19T12:50:02;8.35;;;3.72;;
36689;SDS011;22676;51.120;3.702;2023-11-19T12:52:29;10.27;;;3.58;;
36689;SDS011;22676;51.120;3.702;2023-11-19T12:54:55;13.52;;;4.00;;
36689;SDS011;22676;51.120;3.702;2023-11-19T12:57:35;14.43;;;4.18;;
36689;SDS011;22676;51.120;3.702;2023-11-19T13:00:07;12.05;;;5.30;;
36689;SDS011;22676;51.120;3.702;2023-11-19T13:02:49;11.52;;;5.25;;
36689;SDS011;22676;51.120;3.702;2023-11-19T13:05:23;12.60;;;4.82;;
36689;SDS011;22676;51.120;3.702;2023-11-19T13:08:06;13.32;;;5.22;;
36689;SDS011;22676;51.120;3.702;2023-11-19T13:10:33;10.90;;;4.60;;
36689;SDS011;22676;51.120;3.702;2023-11-19T13:13:18;13.45;;;4.68;;
36689;SDS011;22676;51.120;3.702;2023-11-19T13:15:44;12.57;;;5.15;;
36689;SDS011;22676;51.120;3.702;2023-11-19T13:18:11;13.50;;;4.72;;
36689;SDS011;22676;51.120;3.702;2023-11-19T13:20:37;9.60;;;4.78;;
36689;SDS011;22676;51.120;3.702;2023-11-19T13:23:04;9.60;;;4.38;;
36689;SDS011;22676;51.120;3.702;2023-11-19T13:25:30;14.27;;;4.45;;
36689;SDS011;22676;51.120;3.702;2023-11-19T13:27:57;8.77;;;3.80;;
36689;SDS011;22676;51.120;3.702;2023-11-19T13:30:23;10.07;;;4.22;;
36689;SDS011;22676;51.120;3.702;2023-11-19T13:32:50;9.57;;;3.97;;
36689;SDS011;22676;51.120;3.702;2023-11-19T13:35:17;14.15;;;4.22;;
36689;SDS011;22676;51.120;3.702;2023-11-19T13:37:43;15.30;;;3.97;;
36689;SDS011;22676;51.120;3.702;2023-11-19T13:40:10;9.10;;;3.67;;
36689;SDS011;22676;51.120;3.702;2023-11-19T13:42:39;12.73;;;3.78;;
36689;SDS011;22676;51.120;3.702;2023-11-19T13:45:09;7.60;;;3.90;;
36689;SDS011;22676;51.120;3.702;2023-11-19T13:47:37;8.75;;;3.45;;
36689;SDS011;22676;51.120;3.702;2023-11-19T13:50:06;7.93;;;3.40;;
36689;SDS011;22676;51.120;3.702;2023-11-19T13:52:39;10.25;;;3.90;;
36689;SDS011;22676;51.120;3.702;2023-11-19T13:55:07;9.68;;;3.80;;
36689;SDS011;22676;51.120;3.702;2023-11-19T13:57:38;15.57;;;4.88;;
36689;SDS011;22676;51.120;3.702;2023-11-19T14:00:05;16.08;;;4.45;;
36689;SDS011;22676;51.120;3.702;2023-11-19T14:02:37;9.82;;;3.70;;
36689;SDS011;22676;51.120;3.702;2023-11-19T14:05:05;15.15;;;4.13;;
36689;SDS011;22676;51.120;3.702;2023-11-19T14:07:30;13.45;;;4.13;;
36689;SDS011;22676;51.120;3.702;2023-11-19T14:09:56;6.60;;;3.33;;
36689;SDS011;22676;51.120;3.702;2023-11-19T14:12:22;6.38;;;3.30;;
36689;SDS011;22676;51.120;3.702;2023-11-19T14:14:48;9.60;;;3.65;;
36689;SDS011;22676;51.120;3.702;2023-11-19T14:17:13;6.82;;;3.30;;
36689;SDS011;22676;51.120;3.702;2023-11-19T14:19:40;12.52;;;3.97;;
36689;SDS011;22676;51.120;3.702;2023-11-19T14:22:07;7.82;;;3.80;;
36689;SDS011;22676;51.120;3.702;2023-11-19T14:24:33;8.98;;;3.95;;
36689;SDS011;22676;51.120;3.702;2023-11-19T14:26:59;8.35;;;3.20;;
36689;SDS011;22676;51.120;3.702;2023-11-19T14:29:26;10.68;;;3.20;;
36689;SDS011;22676;51.120;3.702;2023-11-19T14:31:52;11.93;;;3.20;;
36689;SDS011;22676;51.120;3.702;2023-11-19T14:34:20;7.45;;;3.30;;
36689;SDS011;22676;51.120;3.702;2023-11-19T14:36:47;7.78;;;2.90;;
36689;SDS011;22676;51.120;3.702;2023-11-19T14:39:13;14.85;;;3.30;;
36689;SDS011;22676;51.120;3.702;2023-11-19T14:41:38;7.95;;;3.13;;
36689;SDS011;22676;51.120;3.702;2023-11-19T14:44:04;6.93;;;3.00;;
36689;SDS011;22676;51.120;3.702;2023-11-19T14:46:30;7.93;;;3.38;;
36689;SDS011;22676;51.120;3.702;2023-11-19T14:48:56;9.80;;;3.20;;
36689;SDS011;22676;51.120;3.702;2023-11-19T14:51:22;12.73;;;3.65;;
36689;SDS011;22676;51.120;3.702;2023-11-19T14:53:48;7.45;;;3.25;;
36689;SDS011;22676;51.120;3.702;2023-11-19T14:56:14;9.55;;;3.85;;
36689;SDS011;22676;51.120;3.702;2023-11-19T14:58:39;10.82;;;3.30;;
36689;SDS011;22676;51.120;3.702;2023-11-19T15:01:05;14.80;;;3.67;;
36689;SDS011;22676;51.120;3.702;2023-11-19T15:03:32;10.50;;;3.53;;
36689;SDS011;22676;51.120;3.702;2023-11-19T15:05:58;15.70;;;3.38;;
36689;SDS011;22676;51.120;3.702;2023-11-19T15:08:24;7.25;;;3.42;;